This demonstration page uses our WeatherBlox Daily Observations layout. Learn more.

Hourly Observations for June 25, 2017

Temp ( °F °C ) Dew Point ( °F °C ) Humidity (%) Winds ( mph kmh ) Pressure ( in mb ) Visibility ( mi km ) Precip ( " mm )
12:52 am 00:52 Partly Cloudy 67 19.4 61 16.1 81 81 Calm 29.94 1014 10 16.09344 0 0
1:52 am 01:52 Mostly Clear 69 20.6 59 15 70 70 Calm 29.97 1015 10 16.09344 0 0
2:52 am 02:52 Mostly Clear 65 18.3 59 15 81 81 Calm 29.97 1015 10 16.09344 0 0
3:52 am 03:52 Partly Cloudy 66 18.9 59 15 78 78 Calm 29.94 1014 10 16.09344 0 0
4:52 am 04:52 Partly Cloudy 65 18.3 59 15 81 81 Calm 29.94 1014 10 16.09344 0 0
5:52 am 05:52 Partly Cloudy 62 16.7 59 15 90 90 Calm 29.97 1015 10 16.09344 0 0
6:20 am 06:20 Mostly Cloudy 64 17.8 60 15.6 87 87 Calm 30 1016 10 16.09344 0 0
6:52 am 06:52 Mostly Cloudy 66 18.9 62 16.7 87 87 SSW 3 6 30 1016 10 16.09344 0 0
7:52 am 07:52 Mostly Cloudy 72 22.2 60 15.6 66 66 WSW 3 6 30 1016 10 16.09344 0 0
8:52 am 08:52 Mostly Cloudy 75 23.9 60 15.6 60 60 N 3 6 30.03 1017 10 16.09344 0 0
9:52 am 09:52 Mostly Cloudy 76 24.4 57 13.9 52 52 NW 8 13 30.03 1017 10 16.09344 0 0
10:52 am 10:52 Mostly Cloudy 78 25.6 60 15.6 54 54 WNW 3 6 30.03 1017 10 16.09344 0 0
11:52 am 11:52 Mostly Cloudy 80 26.7 59 15 49 49 WNW 12 19 30.03 1017 10 16.09344 0 0
12:52 pm 12:52 Mostly Cloudy 81 27.2 52 11.1 37 37 W 15 24 30 1016 10 16.09344 0 0
1:52 pm 13:52 Mostly Cloudy 83 28.3 53 11.7 36 36 WNW 10 17 30 1016 10 16.09344 0 0
2:52 pm 14:52 Mostly Cloudy 82 27.8 51 10.6 34 34 W 8 13 29.97 1015 10 16.09344 0 0
3:52 pm 15:52 Mostly Cloudy 85 29.4 52 11.1 32 32 WNW 12 19 29.97 1015 10 16.09344 0 0
4:52 pm 16:52 Mostly Cloudy 84 28.9 48 8.9 29 29 WNW 15 24 29.97 1015 10 16.09344 0 0
5:52 pm 17:52 Partly Cloudy 82 27.8 45 7.2 27 27 NW 17 28 29.97 1015 10 16.09344 0 0
6:52 pm 18:52 Partly Cloudy 80 26.7 44 6.7 28 28 NW 17 28 29.97 1015 10 16.09344 0 0
7:52 pm 19:52 Partly Cloudy 78 25.6 45 7.2 31 31 NW 9 15 30 1016 10 16.09344 0 0
8:52 pm 20:52 Mostly Cloudy 74 23.3 45 7.2 36 36 NW 6 9 30 1016 10 16.09344 0 0
9:52 pm 21:52 Mostly Clear 71 21.7 47 8.3 42 42 NW 6 9 30.03 1017 10 16.09344 0 0
10:52 pm 22:52 Mostly Clear 69 20.6 46 7.8 44 44 W 6 9 30.03 1017 10 16.09344 0 0
11:52 pm 23:52 Clear 65 18.3 47 8.3 52 52 W 3 6 30.03 1017 10 16.09344 0 0

Powered by AerisWeather